createdAt,value
2023-05-13T00:06:10.029Z,13.30
2023-05-13T00:11:10.086Z,13.30
2023-05-13T00:16:10.053Z,12.50
2023-05-13T00:21:09.998Z,12.50
2023-05-13T00:31:10.505Z,15.20
2023-05-13T00:36:11.333Z,13.40
2023-05-13T00:41:10.868Z,13.40
2023-05-13T00:46:10.173Z,14.10
2023-05-13T00:51:10.105Z,14.10
2023-05-13T00:56:10.232Z,14.90
2023-05-13T01:01:20.534Z,14.90
2023-05-13T01:11:21.544Z,13.40
2023-05-13T01:16:20.548Z,14.60
2023-05-13T01:31:12.228Z,12.80
2023-05-13T01:36:10.407Z,20.80
2023-05-13T01:46:11.393Z,14.20
2023-05-13T01:51:10.270Z,14.20
2023-05-13T01:56:10.383Z,12.80
2023-05-13T02:01:10.268Z,12.80
2023-05-13T02:06:10.275Z,12.10
2023-05-13T02:16:14.465Z,12.40
2023-05-13T02:26:10.365Z,12.00
2023-05-13T02:31:10.376Z,12.00
2023-05-13T02:36:10.362Z,10.70
2023-05-13T02:41:10.420Z,10.70
2023-05-13T02:46:10.634Z,10.90
2023-05-13T02:56:10.493Z,14.10
2023-05-13T03:01:10.578Z,14.10
2023-05-13T03:06:10.552Z,12.90
2023-05-13T03:11:11.754Z,12.90
2023-05-13T03:21:10.570Z,15.50
2023-05-13T03:26:10.505Z,15.90
2023-05-13T03:31:11.574Z,15.90
2023-05-13T03:36:10.515Z,16.80
2023-05-13T03:41:10.642Z,16.80
2023-05-13T03:46:10.617Z,21.00
2023-05-13T03:56:10.576Z,22.20
2023-05-13T04:16:10.890Z,23.20
2023-05-13T04:21:10.637Z,23.20
2023-05-13T04:26:10.750Z,25.50
2023-05-13T04:31:11.215Z,25.50
2023-05-13T04:46:10.751Z,25.50
2023-05-13T04:51:10.725Z,25.50
2023-05-13T04:56:10.838Z,24.10
2023-05-13T05:01:10.801Z,24.10
2023-05-13T05:06:10.755Z,26.00
2023-05-13T05:11:10.853Z,26.00
2023-05-13T05:16:10.769Z,25.50
2023-05-13T05:21:11.631Z,25.50
2023-05-13T05:31:10.987Z,23.10
2023-05-13T05:41:10.944Z,21.00
2023-05-13T05:51:10.910Z,20.10
2023-05-13T06:01:10.953Z,20.90
2023-05-13T06:21:10.996Z,19.30
2023-05-13T06:26:10.980Z,17.30
2023-05-13T06:31:11.029Z,17.30
2023-05-13T06:41:11.043Z,15.90
2023-05-13T07:01:11.172Z,15.90
2023-05-13T07:11:11.244Z,16.80
2023-05-13T07:21:12.349Z,15.90
2023-05-13T07:31:11.462Z,14.10
2023-05-13T07:36:11.500Z,11.70
2023-05-13T07:41:11.407Z,11.70
2023-05-13T07:46:11.257Z,10.60
2023-05-13T07:51:11.259Z,10.60
2023-05-13T07:56:11.428Z,12.90
2023-05-13T08:01:11.251Z,12.90
2023-05-13T08:06:11.436Z,13.40
2023-05-13T08:11:12.465Z,13.40
2023-05-13T08:16:11.354Z,10.30
2023-05-13T08:21:11.363Z,10.30
2023-05-13T08:26:11.533Z,10.70
2023-05-13T08:31:11.987Z,10.70
2023-05-13T08:36:11.703Z,9.30
2023-05-13T08:41:12.917Z,9.30
2023-05-13T08:51:11.690Z,10.10
2023-05-13T09:01:11.661Z,8.70
2023-05-13T09:11:11.666Z,9.10
2023-05-13T09:16:13.137Z,8.30
2023-05-13T09:21:23.584Z,8.30
2023-05-13T09:31:11.555Z,8.80
2023-05-13T09:36:11.718Z,10.30
2023-05-13T09:41:11.483Z,10.30
2023-05-13T09:46:11.632Z,10.70
2023-05-13T09:51:14.070Z,10.70
2023-05-13T09:56:11.572Z,7.80
2023-05-13T10:01:11.755Z,7.80
2023-05-13T10:06:12.518Z,7.10
2023-05-13T10:11:15.400Z,7.10
2023-05-13T10:16:11.946Z,7.10
2023-05-13T10:21:12.014Z,7.40
2023-05-13T10:26:12.568Z,7.40
2023-05-13T10:31:11.677Z,5.70
2023-05-13T10:46:12.500Z,7.90
2023-05-13T10:51:14.213Z,9.00
2023-05-13T10:56:12.598Z,9.00
2023-05-13T11:01:16.525Z,7.40
2023-05-13T11:06:15.696Z,7.40
2023-05-13T11:11:21.732Z,7.30
2023-05-13T11:16:12.386Z,7.30
2023-05-13T11:21:12.393Z,10.60
2023-05-13T11:26:15.864Z,10.60
2023-05-13T11:31:16.387Z,7.50
2023-05-13T11:36:11.842Z,7.50
2023-05-13T11:46:18.402Z,9.10
2023-05-13T11:51:16.632Z,10.30
2023-05-13T11:56:12.403Z,10.30
2023-05-13T12:01:13.955Z,12.20
2023-05-13T12:06:12.535Z,12.20
2023-05-13T12:11:12.474Z,9.00
2023-05-13T12:16:12.741Z,9.00
2023-05-13T12:21:14.776Z,11.20
2023-05-13T12:26:12.042Z,11.20
2023-05-13T12:31:16.103Z,10.30
2023-05-13T12:36:18.947Z,10.30
2023-05-13T13:06:12.757Z,10.80
2023-05-13T13:11:17.565Z,10.10
2023-05-13T13:21:12.163Z,10.10
2023-05-13T13:26:12.192Z,10.10
2023-05-13T13:31:12.203Z,9.30
2023-05-13T13:41:12.204Z,11.20
2023-05-13T13:51:12.320Z,12.00
2023-05-13T13:56:12.278Z,12.00
2023-05-13T14:11:12.768Z,16.20
2023-05-13T14:16:12.354Z,16.20
2023-05-13T14:21:12.436Z,16.30
2023-05-13T14:26:14.556Z,16.30
2023-05-13T14:31:12.452Z,16.70
2023-05-13T14:36:15.058Z,16.70
2023-05-13T14:41:18.616Z,15.70
2023-05-13T14:46:12.810Z,15.70
2023-05-13T14:51:12.496Z,16.20
2023-05-13T14:56:12.463Z,16.20
2023-05-13T15:06:12.504Z,14.50
2023-05-13T15:16:12.479Z,14.30
2023-05-13T15:26:12.623Z,12.60
2023-05-13T15:31:12.520Z,18.10
2023-05-13T15:41:12.560Z,14.10
2023-05-13T15:46:12.709Z,14.10
2023-05-13T15:51:12.549Z,15.90
2023-05-13T15:56:12.631Z,15.90
2023-05-13T16:01:12.606Z,16.00
2023-05-13T16:06:12.672Z,16.00
2023-05-13T16:16:12.746Z,15.50
2023-05-13T16:21:12.769Z,18.60
2023-05-13T16:26:12.709Z,18.60
2023-05-13T16:36:12.807Z,15.10
2023-05-13T16:41:12.719Z,14.60
2023-05-13T16:46:12.778Z,14.60
2023-05-13T16:51:12.725Z,17.80
2023-05-13T17:01:12.872Z,21.00
2023-05-13T17:06:12.785Z,21.00
2023-05-13T17:11:15.723Z,19.40
2023-05-13T17:16:12.785Z,19.40
2023-05-13T17:21:12.870Z,22.60
2023-05-13T17:26:12.839Z,22.60
2023-05-13T17:31:12.860Z,20.90
2023-05-13T17:41:12.875Z,19.40
2023-05-13T17:46:12.883Z,19.40
2023-05-13T17:51:12.918Z,21.00
2023-05-13T18:01:13.014Z,20.10
2023-05-13T18:06:13.085Z,20.10
2023-05-13T18:11:12.995Z,15.80
2023-05-13T18:21:13.027Z,14.60
2023-05-13T18:31:13.230Z,12.80
2023-05-13T18:36:13.075Z,12.80
2023-05-13T18:46:13.062Z,14.80
2023-05-13T18:51:15.294Z,16.20
2023-05-13T18:56:13.063Z,16.20
2023-05-13T19:01:14.624Z,14.20
2023-05-13T19:06:14.472Z,14.20
2023-05-13T19:16:13.334Z,21.30
2023-05-13T19:21:13.158Z,17.60
2023-05-13T19:26:13.229Z,17.60
2023-05-13T19:31:13.211Z,14.90
2023-05-13T19:41:13.228Z,14.80
2023-05-13T19:46:13.283Z,14.80
2023-05-13T19:51:13.250Z,14.90
2023-05-13T19:56:13.216Z,14.90
2023-05-13T20:01:13.898Z,15.90
2023-05-13T20:06:13.277Z,15.90
2023-05-13T20:11:13.286Z,15.70
2023-05-13T20:21:13.296Z,17.10
2023-05-13T20:31:13.929Z,17.40
2023-05-13T20:36:13.331Z,17.40
2023-05-13T20:41:14.545Z,17.00
2023-05-13T20:56:13.422Z,18.10
2023-05-13T21:01:13.796Z,19.40
2023-05-13T21:06:13.454Z,19.40
2023-05-13T21:11:13.483Z,18.70
2023-05-13T21:16:13.573Z,18.70
2023-05-13T21:26:13.517Z,20.70
2023-05-13T21:31:13.615Z,20.10
2023-05-13T21:41:13.706Z,19.60
2023-05-13T21:56:13.509Z,23.10
2023-05-13T22:01:13.610Z,18.50
2023-05-13T22:21:13.590Z,17.30
2023-05-13T22:31:15.005Z,20.40
2023-05-13T22:36:13.838Z,20.40
2023-05-13T22:41:13.642Z,19.10
2023-05-13T22:51:13.707Z,19.40
2023-05-13T23:01:14.384Z,19.70
2023-05-13T23:06:13.710Z,19.70
2023-05-13T23:11:13.785Z,20.20
2023-05-13T23:21:13.994Z,18.60
2023-05-13T23:41:13.823Z,18.50
2023-05-13T23:46:13.886Z,18.50
2023-05-13T23:51:13.860Z,18.30
